sensor_id;sensor_type;location;lat;lon;timestamp;P1;durP1;ratioP1;P2;durP2;ratioP2
16430;SDS011;8325;49.284;7.238;2023-02-25T05:02:36;3.08;;;2.03;;
16430;SDS011;8325;49.284;7.238;2023-02-25T05:06:47;5.38;;;2.10;;
16430;SDS011;8325;49.284;7.238;2023-02-25T05:10:59;6.65;;;2.45;;
16430;SDS011;8325;49.284;7.238;2023-02-25T05:15:11;6.03;;;2.33;;
16430;SDS011;8325;49.284;7.238;2023-02-25T05:19:23;4.25;;;1.83;;
16430;SDS011;8325;49.284;7.238;2023-02-25T05:23:35;3.95;;;1.50;;
16430;SDS011;8325;49.284;7.238;2023-02-25T05:27:47;3.83;;;2.17;;
16430;SDS011;8325;49.284;7.238;2023-02-25T05:31:58;7.35;;;2.10;;
16430;SDS011;8325;49.284;7.238;2023-02-25T05:36:12;5.60;;;2.17;;
16430;SDS011;8325;49.284;7.238;2023-02-25T05:40:26;3.90;;;1.50;;
16430;SDS011;8325;49.284;7.238;2023-02-25T05:44:37;5.90;;;2.08;;
16430;SDS011;8325;49.284;7.238;2023-02-25T05:48:49;7.37;;;1.80;;
16430;SDS011;8325;49.284;7.238;2023-02-25T05:53:00;6.60;;;1.92;;
16430;SDS011;8325;49.284;7.238;2023-02-25T05:57:12;3.75;;;1.50;;
16430;SDS011;8325;49.284;7.238;2023-02-25T06:01:24;5.18;;;1.52;;
16430;SDS011;8325;49.284;7.238;2023-02-25T06:05:39;8.00;;;1.75;;
16430;SDS011;8325;49.284;7.238;2023-02-25T06:09:52;3.00;;;1.40;;
16430;SDS011;8325;49.284;7.238;2023-02-25T06:14:05;3.95;;;1.65;;
16430;SDS011;8325;49.284;7.238;2023-02-25T06:18:16;4.53;;;2.00;;
16430;SDS011;8325;49.284;7.238;2023-02-25T06:22:28;5.35;;;2.45;;
16430;SDS011;8325;49.284;7.238;2023-02-25T06:26:39;3.72;;;1.58;;
16430;SDS011;8325;49.284;7.238;2023-02-25T06:30:52;6.13;;;2.10;;
16430;SDS011;8325;49.284;7.238;2023-02-25T06:35:04;5.18;;;1.73;;
16430;SDS011;8325;49.284;7.238;2023-02-25T06:39:16;5.97;;;1.60;;
16430;SDS011;8325;49.284;7.238;2023-02-25T06:43:28;4.63;;;1.67;;
16430;SDS011;8325;49.284;7.238;2023-02-25T06:47:39;3.70;;;1.70;;
16430;SDS011;8325;49.284;7.238;2023-02-25T06:51:51;5.25;;;1.48;;
16430;SDS011;8325;49.284;7.238;2023-02-25T06:56:02;6.47;;;1.70;;
16430;SDS011;8325;49.284;7.238;2023-02-25T07:00:14;3.65;;;1.48;;
16430;SDS011;8325;49.284;7.238;2023-02-25T07:04:26;4.47;;;1.60;;
16430;SDS011;8325;49.284;7.238;2023-02-25T07:08:38;5.28;;;1.70;;
16430;SDS011;8325;49.284;7.238;2023-02-25T07:12:50;4.38;;;1.85;;
16430;SDS011;8325;49.284;7.238;2023-02-25T07:17:03;4.68;;;1.77;;
16430;SDS011;8325;49.284;7.238;2023-02-25T07:21:15;3.70;;;1.50;;
16430;SDS011;8325;49.284;7.238;2023-02-25T07:25:28;4.45;;;1.63;;
16430;SDS011;8325;49.284;7.238;2023-02-25T07:29:39;4.22;;;1.90;;
16430;SDS011;8325;49.284;7.238;2023-02-25T07:33:52;3.90;;;1.77;;
16430;SDS011;8325;49.284;7.238;2023-02-25T07:38:05;3.72;;;1.60;;
16430;SDS011;8325;49.284;7.238;2023-02-25T07:42:16;4.35;;;1.80;;
16430;SDS011;8325;49.284;7.238;2023-02-25T07:46:31;6.75;;;2.30;;
16430;SDS011;8325;49.284;7.238;2023-02-25T07:50:43;5.50;;;2.25;;
16430;SDS011;8325;49.284;7.238;2023-02-25T07:54:55;6.05;;;1.83;;
16430;SDS011;8325;49.284;7.238;2023-02-25T07:59:06;2.78;;;1.50;;
16430;SDS011;8325;49.284;7.238;2023-02-25T08:03:18;5.28;;;2.08;;
16430;SDS011;8325;49.284;7.238;2023-02-25T08:07:31;3.92;;;1.85;;
16430;SDS011;8325;49.284;7.238;2023-02-25T08:11:43;6.47;;;2.13;;
16430;SDS011;8325;49.284;7.238;2023-02-25T08:15:55;4.38;;;1.92;;
16430;SDS011;8325;49.284;7.238;2023-02-25T08:20:07;4.82;;;1.95;;
16430;SDS011;8325;49.284;7.238;2023-02-25T08:24:20;4.20;;;1.92;;
16430;SDS011;8325;49.284;7.238;2023-02-25T08:28:32;5.53;;;1.85;;
16430;SDS011;8325;49.284;7.238;2023-02-25T08:32:47;5.20;;;1.65;;
16430;SDS011;8325;49.284;7.238;2023-02-25T08:36:59;3.70;;;1.60;;
16430;SDS011;8325;49.284;7.238;2023-02-25T08:41:10;4.18;;;1.63;;
16430;SDS011;8325;49.284;7.238;2023-02-25T08:45:22;5.35;;;1.65;;
16430;SDS011;8325;49.284;7.238;2023-02-25T08:49:35;7.00;;;1.60;;
16430;SDS011;8325;49.284;7.238;2023-02-25T08:53:46;3.97;;;1.52;;
16430;SDS011;8325;49.284;7.238;2023-02-25T08:57:58;6.82;;;1.83;;
16430;SDS011;8325;49.284;7.238;2023-02-25T09:02:10;4.55;;;1.80;;
16430;SDS011;8325;49.284;7.238;2023-02-25T09:06:25;4.10;;;1.60;;
16430;SDS011;8325;49.284;7.238;2023-02-25T09:10:38;4.53;;;2.10;;
16430;SDS011;8325;49.284;7.238;2023-02-25T09:15:01;3.30;;;1.50;;
16430;SDS011;8325;49.284;7.238;2023-02-25T09:19:13;4.07;;;1.67;;
16430;SDS011;8325;49.284;7.238;2023-02-25T09:23:27;4.85;;;1.63;;
16430;SDS011;8325;49.284;7.238;2023-02-25T09:27:38;3.85;;;1.67;;
16430;SDS011;8325;49.284;7.238;2023-02-25T09:31:50;3.17;;;1.63;;
16430;SDS011;8325;49.284;7.238;2023-02-25T09:40:20;3.03;;;1.55;;
16430;SDS011;8325;49.284;7.238;2023-02-25T09:44:36;3.97;;;2.10;;
16430;SDS011;8325;49.284;7.238;2023-02-25T09:49:09;7.43;;;2.10;;
16430;SDS011;8325;49.284;7.238;2023-02-25T09:53:34;5.57;;;2.20;;
16430;SDS011;8325;49.284;7.238;2023-02-25T09:58:07;6.90;;;1.90;;
16430;SDS011;8325;49.284;7.238;2023-02-25T10:02:53;4.40;;;1.88;;
16430;SDS011;8325;49.284;7.238;2023-02-25T10:07:16;7.32;;;1.88;;
16430;SDS011;8325;49.284;7.238;2023-02-25T10:15:54;4.15;;;1.95;;
16430;SDS011;8325;49.284;7.238;2023-02-25T10:24:45;6.68;;;1.95;;
16430;SDS011;8325;49.284;7.238;2023-02-25T10:29:04;4.80;;;2.00;;
16430;SDS011;8325;49.284;7.238;2023-02-25T10:33:18;5.60;;;2.08;;
16430;SDS011;8325;49.284;7.238;2023-02-25T10:37:35;4.50;;;2.00;;
16430;SDS011;8325;49.284;7.238;2023-02-25T10:41:48;5.10;;;2.15;;
16430;SDS011;8325;49.284;7.238;2023-02-25T10:46:02;5.20;;;1.60;;
16430;SDS011;8325;49.284;7.238;2023-02-25T10:54:49;6.35;;;1.48;;
16430;SDS011;8325;49.284;7.238;2023-02-25T10:59:03;4.22;;;1.63;;
16430;SDS011;8325;49.284;7.238;2023-02-25T11:03:20;2.65;;;1.40;;
16430;SDS011;8325;49.284;7.238;2023-02-25T11:16:11;4.38;;;1.42;;
16430;SDS011;8325;49.284;7.238;2023-02-25T11:20:25;4.50;;;1.48;;
16430;SDS011;8325;49.284;7.238;2023-02-25T11:24:39;3.70;;;1.38;;
16430;SDS011;8325;49.284;7.238;2023-02-25T11:28:53;2.38;;;1.10;;
16430;SDS011;8325;49.284;7.238;2023-02-25T11:37:52;3.63;;;1.13;;
16430;SDS011;8325;49.284;7.238;2023-02-25T11:53:02;3.03;;;1.13;;
16430;SDS011;8325;49.284;7.238;2023-02-25T11:57:32;3.53;;;1.20;;
16430;SDS011;8325;49.284;7.238;2023-02-25T12:06:35;5.60;;;1.98;;
16430;SDS011;8325;49.284;7.238;2023-02-25T12:11:37;5.78;;;1.20;;
16430;SDS011;8325;49.284;7.238;2023-02-25T12:49:40;2.33;;;1.65;;
16430;SDS011;8325;49.284;7.238;2023-02-25T12:54:25;3.53;;;1.80;;
16430;SDS011;8325;49.284;7.238;2023-02-25T12:59:09;3.30;;;1.80;;
16430;SDS011;8325;49.284;7.238;2023-02-25T13:36:01;1.85;;;0.90;;
16430;SDS011;8325;49.284;7.238;2023-02-25T13:49:55;3.03;;;0.90;;
16430;SDS011;8325;49.284;7.238;2023-02-25T13:54:30;3.22;;;1.00;;
16430;SDS011;8325;49.284;7.238;2023-02-25T14:43:37;6.50;;;1.38;;
16430;SDS011;8325;49.284;7.238;2023-02-25T14:48:09;2.17;;;1.02;;
16430;SDS011;8325;49.284;7.238;2023-02-25T14:57:15;3.35;;;0.90;;
16430;SDS011;8325;49.284;7.238;2023-02-25T15:02:09;3.03;;;1.25;;
16430;SDS011;8325;49.284;7.238;2023-02-25T15:20:35;4.63;;;1.98;;
16430;SDS011;8325;49.284;7.238;2023-02-25T15:24:51;2.30;;;0.90;;
16430;SDS011;8325;49.284;7.238;2023-02-25T15:29:10;3.80;;;1.30;;
16430;SDS011;8325;49.284;7.238;2023-02-25T15:33:38;2.40;;;1.08;;
16430;SDS011;8325;49.284;7.238;2023-02-25T15:42:06;4.15;;;1.73;;
16430;SDS011;8325;49.284;7.238;2023-02-25T15:54:52;2.38;;;1.20;;
16430;SDS011;8325;49.284;7.238;2023-02-25T16:03:54;1.95;;;0.80;;
16430;SDS011;8325;49.284;7.238;2023-02-25T16:08:12;2.92;;;0.80;;
16430;SDS011;8325;49.284;7.238;2023-02-25T16:12:30;1.80;;;0.90;;
16430;SDS011;8325;49.284;7.238;2023-02-25T16:16:45;1.00;;;0.90;;
16430;SDS011;8325;49.284;7.238;2023-02-25T16:21:04;1.65;;;1.00;;
16430;SDS011;8325;49.284;7.238;2023-02-25T16:25:25;1.10;;;0.90;;
16430;SDS011;8325;49.284;7.238;2023-02-25T16:39:05;0.93;;;0.83;;
16430;SDS011;8325;49.284;7.238;2023-02-25T16:43:26;1.05;;;0.95;;
16430;SDS011;8325;49.284;7.238;2023-02-25T16:47:52;1.60;;;1.20;;
16430;SDS011;8325;49.284;7.238;2023-02-25T16:52:07;2.10;;;0.90;;
16430;SDS011;8325;49.284;7.238;2023-02-25T16:56:27;2.30;;;1.20;;
16430;SDS011;8325;49.284;7.238;2023-02-25T17:00:49;1.77;;;1.20;;
16430;SDS011;8325;49.284;7.238;2023-02-25T17:05:01;2.60;;;1.70;;
16430;SDS011;8325;49.284;7.238;2023-02-25T17:09:23;2.30;;;1.60;;
16430;SDS011;8325;49.284;7.238;2023-02-25T17:13:38;6.63;;;2.17;;
16430;SDS011;8325;49.284;7.238;2023-02-25T17:22:20;3.73;;;2.43;;
16430;SDS011;8325;49.284;7.238;2023-02-25T17:26:33;3.13;;;2.40;;
16430;SDS011;8325;49.284;7.238;2023-02-25T17:30:50;5.63;;;2.50;;
16430;SDS011;8325;49.284;7.238;2023-02-25T17:35:02;5.07;;;2.70;;
16430;SDS011;8325;49.284;7.238;2023-02-25T17:39:17;3.20;;;2.43;;
16430;SDS011;8325;49.284;7.238;2023-02-25T17:43:36;4.47;;;2.37;;
16430;SDS011;8325;49.284;7.238;2023-02-25T17:47:49;6.43;;;2.63;;
16430;SDS011;8325;49.284;7.238;2023-02-25T17:52:14;3.90;;;2.20;;
16430;SDS011;8325;49.284;7.238;2023-02-25T17:56:30;3.77;;;2.03;;
16430;SDS011;8325;49.284;7.238;2023-02-25T18:00:43;2.73;;;1.80;;
16430;SDS011;8325;49.284;7.238;2023-02-25T18:13:46;6.00;;;3.20;;
16430;SDS011;8325;49.284;7.238;2023-02-25T18:18:04;6.20;;;3.40;;
16430;SDS011;8325;49.284;7.238;2023-02-25T18:22:25;5.33;;;2.93;;
16430;SDS011;8325;49.284;7.238;2023-02-25T18:26:40;5.30;;;2.67;;
16430;SDS011;8325;49.284;7.238;2023-02-25T18:31:14;4.27;;;2.17;;
16430;SDS011;8325;49.284;7.238;2023-02-25T18:35:27;6.93;;;2.33;;
16430;SDS011;8325;49.284;7.238;2023-02-25T18:39:41;4.57;;;1.93;;
16430;SDS011;8325;49.284;7.238;2023-02-25T18:43:53;11.37;;;3.57;;
16430;SDS011;8325;49.284;7.238;2023-02-25T18:48:05;6.00;;;2.60;;
16430;SDS011;8325;49.284;7.238;2023-02-25T18:52:19;4.13;;;2.30;;
16430;SDS011;8325;49.284;7.238;2023-02-25T18:56:32;3.40;;;2.17;;
16430;SDS011;8325;49.284;7.238;2023-02-25T19:00:44;8.33;;;4.80;;
16430;SDS011;8325;49.284;7.238;2023-02-25T19:04:57;4.83;;;3.20;;
16430;SDS011;8325;49.284;7.238;2023-02-25T19:09:10;3.97;;;2.47;;
16430;SDS011;8325;49.284;7.238;2023-02-25T19:13:24;6.03;;;2.47;;
16430;SDS011;8325;49.284;7.238;2023-02-25T19:17:43;7.43;;;2.67;;
16430;SDS011;8325;49.284;7.238;2023-02-25T19:21:54;10.43;;;4.80;;
16430;SDS011;8325;49.284;7.238;2023-02-25T19:26:05;6.07;;;2.93;;
16430;SDS011;8325;49.284;7.238;2023-02-25T19:30:18;6.33;;;2.10;;
16430;SDS011;8325;49.284;7.238;2023-02-25T19:34:32;4.30;;;2.10;;
16430;SDS011;8325;49.284;7.238;2023-02-25T19:38:43;3.70;;;2.27;;
16430;SDS011;8325;49.284;7.238;2023-02-25T19:42:55;4.87;;;2.60;;
16430;SDS011;8325;49.284;7.238;2023-02-25T19:47:07;4.00;;;1.77;;
16430;SDS011;8325;49.284;7.238;2023-02-25T19:51:19;2.93;;;1.67;;
16430;SDS011;8325;49.284;7.238;2023-02-25T19:55:31;5.10;;;1.87;;
16430;SDS011;8325;49.284;7.238;2023-02-25T19:59:43;3.03;;;1.63;;
16430;SDS011;8325;49.284;7.238;2023-02-25T20:03:55;4.77;;;1.80;;
16430;SDS011;8325;49.284;7.238;2023-02-25T20:08:06;5.33;;;2.00;;
16430;SDS011;8325;49.284;7.238;2023-02-25T20:12:18;4.37;;;2.23;;
16430;SDS011;8325;49.284;7.238;2023-02-25T20:16:30;2.93;;;1.57;;
16430;SDS011;8325;49.284;7.238;2023-02-25T20:20:43;2.83;;;1.80;;
16430;SDS011;8325;49.284;7.238;2023-02-25T20:24:54;4.23;;;1.90;;
16430;SDS011;8325;49.284;7.238;2023-02-25T20:29:07;3.57;;;1.50;;
16430;SDS011;8325;49.284;7.238;2023-02-25T20:33:20;3.23;;;1.60;;
16430;SDS011;8325;49.284;7.238;2023-02-25T20:37:33;3.47;;;1.37;;
16430;SDS011;8325;49.284;7.238;2023-02-25T20:41:49;7.03;;;3.53;;
16430;SDS011;8325;49.284;7.238;2023-02-25T20:46:00;5.00;;;2.73;;
16430;SDS011;8325;49.284;7.238;2023-02-25T20:50:13;5.23;;;2.90;;
16430;SDS011;8325;49.284;7.238;2023-02-25T20:54:25;5.33;;;2.60;;
16430;SDS011;8325;49.284;7.238;2023-02-25T20:58:37;7.27;;;3.27;;
16430;SDS011;8325;49.284;7.238;2023-02-25T21:02:50;3.63;;;1.93;;
16430;SDS011;8325;49.284;7.238;2023-02-25T21:07:02;3.70;;;2.20;;
16430;SDS011;8325;49.284;7.238;2023-02-25T21:11:14;4.17;;;1.67;;
16430;SDS011;8325;49.284;7.238;2023-02-25T21:15:25;2.93;;;1.70;;
16430;SDS011;8325;49.284;7.238;2023-02-25T21:19:37;6.43;;;2.87;;
16430;SDS011;8325;49.284;7.238;2023-02-25T21:23:49;5.67;;;2.40;;
16430;SDS011;8325;49.284;7.238;2023-02-25T21:28:02;2.50;;;1.80;;
16430;SDS011;8325;49.284;7.238;2023-02-25T21:32:14;5.37;;;1.67;;
16430;SDS011;8325;49.284;7.238;2023-02-25T21:36:26;2.97;;;1.70;;
16430;SDS011;8325;49.284;7.238;2023-02-25T21:40:38;4.23;;;2.20;;
16430;SDS011;8325;49.284;7.238;2023-02-25T21:44:49;2.67;;;1.70;;
16430;SDS011;8325;49.284;7.238;2023-02-25T21:49:01;3.33;;;2.27;;
16430;SDS011;8325;49.284;7.238;2023-02-25T21:53:12;4.57;;;2.30;;
16430;SDS011;8325;49.284;7.238;2023-02-25T21:57:24;6.10;;;2.23;;
16430;SDS011;8325;49.284;7.238;2023-02-25T22:01:37;9.53;;;3.60;;
16430;SDS011;8325;49.284;7.238;2023-02-25T22:05:50;2.53;;;1.40;;
16430;SDS011;8325;49.284;7.238;2023-02-25T22:10:02;1.40;;;1.30;;
16430;SDS011;8325;49.284;7.238;2023-02-25T22:14:13;4.40;;;1.10;;
16430;SDS011;8325;49.284;7.238;2023-02-25T22:18:25;4.23;;;1.20;;
16430;SDS011;8325;49.284;7.238;2023-02-25T22:22:36;3.30;;;1.07;;
16430;SDS011;8325;49.284;7.238;2023-02-25T22:27:13;2.50;;;1.17;;
